createdAt,value
2023-05-11T00:04:48.089Z,53.60
2023-05-11T00:10:10.926Z,53.52
2023-05-11T00:15:32.333Z,53.59
2023-05-11T00:20:54.650Z,53.59
2023-05-11T00:26:17.040Z,53.70
2023-05-11T00:31:39.097Z,53.96
2023-05-11T00:37:00.186Z,53.77
2023-05-11T00:42:21.622Z,53.86
2023-05-11T00:47:42.624Z,53.82
2023-05-11T00:53:03.758Z,53.85
2023-05-11T00:58:25.801Z,53.81
2023-05-11T01:03:47.756Z,54.09
2023-05-11T01:09:36.534Z,54.10
2023-05-11T01:15:00.561Z,54.14
2023-05-11T01:20:27.329Z,54.00
2023-05-11T01:26:14.075Z,54.15
2023-05-11T01:31:40.082Z,54.02
2023-05-11T01:37:10.054Z,54.32
2023-05-11T01:42:36.728Z,54.42
2023-05-11T01:48:00.388Z,54.37
2023-05-11T01:53:22.827Z,54.55
2023-05-11T01:58:45.521Z,54.38
2023-05-11T02:04:09.401Z,54.60
2023-05-11T02:09:32.756Z,54.77
2023-05-11T02:14:57.188Z,54.74
2023-05-11T02:20:19.949Z,54.82
2023-05-11T02:25:43.881Z,55.07
2023-05-11T02:31:10.741Z,55.10
2023-05-11T02:36:34.241Z,55.00
2023-05-11T02:41:58.750Z,55.17
2023-05-11T02:47:22.737Z,55.24
2023-05-11T02:52:47.530Z,55.43
2023-05-11T02:58:09.031Z,55.43
2023-05-11T03:03:33.528Z,55.44
2023-05-11T03:08:55.163Z,55.48
2023-05-11T03:14:18.539Z,55.73
2023-05-11T03:19:42.029Z,55.60
2023-05-11T03:25:07.732Z,55.77
2023-05-11T03:30:30.061Z,55.98
2023-05-11T03:35:54.243Z,56.05
2023-05-11T03:41:19.243Z,56.03
2023-05-11T03:46:46.146Z,56.29
2023-05-11T03:52:10.574Z,55.90
2023-05-11T03:57:31.730Z,56.14
2023-05-11T04:02:53.292Z,56.10
2023-05-11T04:08:15.434Z,56.49
2023-05-11T04:13:37.104Z,56.39
2023-05-11T04:18:58.983Z,56.12
2023-05-11T04:24:19.981Z,56.54
2023-05-11T04:29:41.237Z,56.38
2023-05-11T04:35:01.867Z,56.39
2023-05-11T04:40:27.239Z,56.42
2023-05-11T04:45:50.499Z,56.65
2023-05-11T04:51:19.510Z,56.65
2023-05-11T04:56:41.257Z,56.80
2023-05-11T05:02:04.437Z,56.70
2023-05-11T05:07:25.472Z,56.62
2023-05-11T05:12:46.973Z,56.97
2023-05-11T05:18:09.053Z,56.95
2023-05-11T05:23:31.007Z,56.91
2023-05-11T05:28:52.017Z,56.95
2023-05-11T05:34:16.477Z,56.73
2023-05-11T05:39:38.731Z,56.84
2023-05-11T05:45:00.982Z,56.81
2023-05-11T05:50:22.514Z,56.92
2023-05-11T05:55:43.599Z,56.76
2023-05-11T06:01:08.738Z,56.93
2023-05-11T06:06:30.220Z,56.76
2023-05-11T06:11:51.271Z,56.96
2023-05-11T06:17:13.353Z,56.87
2023-05-11T06:22:35.616Z,56.90
2023-05-11T06:27:57.832Z,56.42
2023-05-11T06:33:19.878Z,56.79
2023-05-11T06:38:41.334Z,56.68
2023-05-11T06:44:03.070Z,56.17
2023-05-11T06:49:30.557Z,56.23
2023-05-11T06:54:51.767Z,56.26
2023-05-11T07:00:12.998Z,55.69
2023-05-11T07:05:34.118Z,55.06
2023-05-11T07:10:55.193Z,54.55
2023-05-11T07:16:16.077Z,54.20
2023-05-11T07:21:37.052Z,54.33
2023-05-11T07:26:57.735Z,54.05
2023-05-11T07:32:18.550Z,54.18
2023-05-11T07:37:39.499Z,54.06
2023-05-11T07:43:00.372Z,53.79
2023-05-11T07:48:21.683Z,53.58
2023-05-11T07:53:45.105Z,53.38
2023-05-11T07:59:06.591Z,52.91
2023-05-11T08:04:28.351Z,52.26
2023-05-11T08:09:49.369Z,52.13
2023-05-11T08:15:10.677Z,51.87
2023-05-11T08:20:31.609Z,50.98
2023-05-11T08:25:53.889Z,51.22
2023-05-11T08:31:14.688Z,51.04
2023-05-11T08:36:36.337Z,51.00
2023-05-11T08:41:58.205Z,51.00
2023-05-11T08:47:22.522Z,50.98
2023-05-11T08:52:44.014Z,50.13
2023-05-11T08:58:07.294Z,49.86
2023-05-11T09:03:30.240Z,49.48
2023-05-11T09:08:51.516Z,48.93
2023-05-11T09:14:13.170Z,48.55
2023-05-11T09:19:34.545Z,48.56
2023-05-11T09:24:55.645Z,48.28
2023-05-11T09:30:23.169Z,48.62
2023-05-11T09:35:44.421Z,47.98
2023-05-11T09:41:08.487Z,47.49
2023-05-11T09:46:29.372Z,47.51
2023-05-11T09:52:01.525Z,47.67
2023-05-11T09:57:24.308Z,47.88
2023-05-11T10:02:45.494Z,47.39
2023-05-11T10:08:07.418Z,47.60
2023-05-11T10:13:30.822Z,47.22
2023-05-11T10:18:52.559Z,46.34
2023-05-11T10:24:14.127Z,46.36
2023-05-11T10:29:37.437Z,46.30
2023-05-11T10:34:59.373Z,46.05
2023-05-11T10:40:21.051Z,46.10
2023-05-11T10:46:20.200Z,45.31
2023-05-11T10:52:19.999Z,45.69
2023-05-11T10:57:58.107Z,45.63
2023-05-11T11:03:19.128Z,45.46
2023-05-11T11:09:02.741Z,45.35
2023-05-11T11:14:26.423Z,44.50
2023-05-11T11:19:47.466Z,44.27
2023-05-11T11:25:09.986Z,44.50
2023-05-11T11:30:30.954Z,44.32
2023-05-11T11:35:52.381Z,44.18
2023-05-11T11:41:29.037Z,44.43
2023-05-11T11:47:10.945Z,44.46
2023-05-11T11:52:31.892Z,44.17
2023-05-11T11:57:52.676Z,43.98
2023-05-11T12:03:23.121Z,44.82
2023-05-11T12:08:44.512Z,44.25
2023-05-11T12:14:09.036Z,44.18
2023-05-11T12:19:31.013Z,43.72
2023-05-11T12:24:57.739Z,43.92
2023-05-11T12:30:22.344Z,44.45
2023-05-11T12:35:44.064Z,44.36
2023-05-11T12:41:06.114Z,44.70
2023-05-11T12:46:27.312Z,44.14
2023-05-11T12:52:01.312Z,43.82
2023-05-11T12:57:27.237Z,43.85
2023-05-11T13:02:56.723Z,43.64
2023-05-11T13:08:22.402Z,44.17
2023-05-11T13:13:43.900Z,44.39
2023-05-11T13:19:06.605Z,43.91
2023-05-11T13:24:27.869Z,43.22
2023-05-11T13:29:49.115Z,43.27
2023-05-11T13:35:10.458Z,43.09
2023-05-11T13:40:31.668Z,43.38
2023-05-11T13:45:52.898Z,43.37
2023-05-11T13:51:14.758Z,43.17
2023-05-11T13:56:37.490Z,43.42
2023-05-11T14:01:59.031Z,43.73
2023-05-11T14:07:20.202Z,43.70
2023-05-11T14:12:41.725Z,43.00
2023-05-11T14:18:05.409Z,43.10
2023-05-11T14:23:26.507Z,43.79
2023-05-11T14:28:47.697Z,44.09
2023-05-11T14:34:08.847Z,44.32
2023-05-11T14:39:29.890Z,44.53
2023-05-11T14:44:52.429Z,44.63
2023-05-11T14:50:13.344Z,44.61
2023-05-11T14:55:39.531Z,45.02
2023-05-11T15:01:00.911Z,44.78
2023-05-11T15:06:22.683Z,44.80
2023-05-11T15:11:43.651Z,45.10
2023-05-11T15:17:04.720Z,44.87
2023-05-11T15:22:25.765Z,44.66
2023-05-11T15:27:46.910Z,44.61
2023-05-11T15:33:09.193Z,44.75
2023-05-11T15:38:31.062Z,44.72
2023-05-11T15:43:52.987Z,44.69
2023-05-11T15:49:13.829Z,44.48
2023-05-11T15:54:36.109Z,44.96
2023-05-11T15:59:57.190Z,44.67
2023-05-11T16:05:18.217Z,44.63
2023-05-11T16:10:42.792Z,44.58
2023-05-11T16:16:04.476Z,45.10
2023-05-11T16:21:25.382Z,44.84
2023-05-11T16:26:46.281Z,44.60
2023-05-11T16:32:07.517Z,44.90
2023-05-11T16:37:28.832Z,45.14
2023-05-11T16:42:50.242Z,45.17
2023-05-11T16:48:15.822Z,45.39
2023-05-11T16:53:39.468Z,45.49
2023-05-11T16:59:00.548Z,45.30
2023-05-11T17:04:21.688Z,45.33
2023-05-11T17:09:42.644Z,45.26
2023-05-11T17:15:04.826Z,45.39
2023-05-11T17:20:25.871Z,45.66
2023-05-11T17:25:46.966Z,45.63
2023-05-11T17:31:13.583Z,45.57
2023-05-11T17:36:35.704Z,45.58
2023-05-11T17:41:56.900Z,45.65
2023-05-11T17:47:17.983Z,46.31
2023-05-11T17:52:38.708Z,46.37
2023-05-11T17:57:59.932Z,46.40
2023-05-11T18:03:21.172Z,46.35
2023-05-11T18:08:42.850Z,45.96
2023-05-11T18:14:04.080Z,45.90
2023-05-11T18:19:26.354Z,45.83
2023-05-11T18:24:47.121Z,45.82
2023-05-11T18:30:08.608Z,46.07
2023-05-11T18:35:33.891Z,47.85
2023-05-11T18:40:56.398Z,47.34
2023-05-11T18:46:17.565Z,47.03
2023-05-11T18:51:38.957Z,46.87
2023-05-11T18:56:59.675Z,46.94
2023-05-11T19:02:23.797Z,47.23
2023-05-11T19:07:46.472Z,46.67
2023-05-11T19:13:07.932Z,46.62
2023-05-11T19:18:32.404Z,46.67
2023-05-11T19:23:53.722Z,46.90
2023-05-11T19:29:24.554Z,47.42
2023-05-11T19:35:05.054Z,47.58
2023-05-11T19:40:45.203Z,47.76
2023-05-11T19:46:16.259Z,47.68
2023-05-11T19:51:36.901Z,47.92
2023-05-11T19:56:59.774Z,48.21
2023-05-11T20:02:20.591Z,48.05
2023-05-11T20:07:41.761Z,48.23
2023-05-11T20:13:06.370Z,48.45
2023-05-11T20:18:27.361Z,48.33
2023-05-11T20:23:48.257Z,48.58
2023-05-11T20:29:10.418Z,48.83
2023-05-11T20:34:31.510Z,49.13
2023-05-11T20:39:52.378Z,48.99
2023-05-11T20:45:13.269Z,49.02
2023-05-11T20:50:34.417Z,49.64
2023-05-11T20:55:55.026Z,49.21
2023-05-11T21:01:16.113Z,49.26
2023-05-11T21:06:37.052Z,49.45
2023-05-11T21:11:59.105Z,49.36
2023-05-11T21:17:20.341Z,49.34
2023-05-11T21:22:41.410Z,49.78
2023-05-11T21:28:02.335Z,49.65
2023-05-11T21:33:23.175Z,49.54
2023-05-11T21:38:44.348Z,49.67
2023-05-11T21:44:05.681Z,49.48
2023-05-11T21:49:26.516Z,49.59
2023-05-11T21:54:47.303Z,49.45
2023-05-11T22:00:09.795Z,49.57
2023-05-11T22:05:30.995Z,49.44
2023-05-11T22:10:52.146Z,49.68
2023-05-11T22:16:13.264Z,49.87
2023-05-11T22:21:34.013Z,49.89
2023-05-11T22:26:55.011Z,50.30
2023-05-11T22:32:16.398Z,49.89
2023-05-11T22:37:37.171Z,50.20
2023-05-11T22:42:58.142Z,50.23
2023-05-11T22:48:19.186Z,50.63
2023-05-11T22:53:40.020Z,50.18
2023-05-11T22:59:01.010Z,50.05
2023-05-11T23:04:22.226Z,50.41
2023-05-11T23:09:43.191Z,49.85
2023-05-11T23:15:05.094Z,50.14
2023-05-11T23:20:26.227Z,49.85
2023-05-11T23:25:47.032Z,50.09
2023-05-11T23:31:07.789Z,49.64
2023-05-11T23:36:28.539Z,49.58
2023-05-11T23:41:49.454Z,49.74
2023-05-11T23:47:10.278Z,49.81
2023-05-11T23:52:31.284Z,49.87
2023-05-11T23:57:52.499Z,50.14
